createdAt,value
2023-02-12T00:00:52.211Z,26.95
2023-02-12T00:03:19.035Z,27.05
2023-02-12T00:05:46.057Z,27.45
2023-02-12T00:08:14.430Z,26.17
2023-02-12T00:10:43.266Z,26.15
2023-02-12T00:13:14.038Z,26.30
2023-02-12T00:15:42.510Z,26.10
2023-02-12T00:18:09.339Z,26.60
2023-02-12T00:20:39.328Z,25.83
2023-02-12T00:23:06.734Z,26.63
2023-02-12T00:25:37.969Z,26.35
2023-02-12T00:28:04.675Z,26.48
2023-02-12T00:30:31.420Z,24.65
2023-02-12T00:32:58.131Z,25.48
2023-02-12T00:35:25.061Z,26.63
2023-02-12T00:37:52.270Z,25.38
2023-02-12T00:40:22.700Z,25.70
2023-02-12T00:42:52.776Z,26.60
2023-02-12T00:45:20.266Z,27.38
2023-02-12T00:47:47.068Z,28.38
2023-02-12T00:50:13.812Z,26.90
2023-02-12T00:52:40.674Z,27.55
2023-02-12T00:55:07.618Z,27.17
2023-02-12T00:57:34.285Z,25.90
2023-02-12T01:00:01.247Z,25.88
2023-02-12T01:02:31.101Z,26.55
2023-02-12T01:04:58.879Z,26.95
2023-02-12T01:07:25.804Z,26.08
2023-02-12T01:09:52.931Z,28.08
2023-02-12T01:12:25.857Z,26.33
2023-02-12T01:14:52.761Z,25.73
2023-02-12T01:17:19.444Z,28.92
2023-02-12T01:19:46.135Z,27.48
2023-02-12T01:22:13.091Z,26.52
2023-02-12T01:24:39.995Z,26.48
2023-02-12T01:27:06.747Z,27.80
2023-02-12T01:29:33.681Z,27.92
2023-02-12T01:32:03.944Z,28.02
2023-02-12T01:34:30.692Z,27.48
2023-02-12T01:36:58.329Z,26.95
2023-02-12T01:39:25.020Z,27.27
2023-02-12T01:41:51.715Z,28.52
2023-02-12T01:44:24.143Z,27.65
2023-02-12T01:46:57.175Z,27.38
2023-02-12T01:49:34.020Z,27.80
2023-02-12T01:52:29.769Z,26.85
2023-02-12T01:55:00.528Z,27.48
2023-02-12T01:57:31.414Z,28.10
2023-02-12T02:00:00.878Z,28.17
2023-02-12T02:02:28.868Z,27.13
2023-02-12T02:04:57.383Z,26.98
2023-02-12T02:07:24.414Z,27.40
2023-02-12T02:09:52.134Z,26.65
2023-02-12T02:12:37.369Z,26.48
2023-02-12T02:15:06.229Z,25.20
2023-02-12T02:17:35.874Z,26.55
2023-02-12T02:20:21.454Z,26.67
2023-02-12T02:28:43.610Z,26.63
2023-02-12T02:31:40.603Z,24.98
2023-02-12T02:34:36.727Z,26.63
2023-02-12T02:37:40.743Z,26.85
2023-02-12T02:40:18.400Z,25.10
2023-02-12T02:42:56.998Z,26.60
2023-02-12T02:45:49.851Z,25.85
2023-02-12T02:48:18.520Z,27.65
2023-02-12T02:50:52.860Z,26.95
2023-02-12T02:53:35.377Z,27.55
2023-02-12T02:56:06.400Z,27.27
2023-02-12T02:58:39.422Z,27.25
2023-02-12T03:01:18.235Z,28.05
2023-02-12T03:03:57.332Z,28.63
2023-02-12T03:06:57.419Z,28.42
2023-02-12T03:09:30.614Z,27.85
2023-02-12T03:12:03.879Z,27.17
2023-02-12T03:14:36.066Z,27.75
2023-02-12T03:17:08.330Z,28.52
2023-02-12T03:19:51.051Z,28.20
2023-02-12T03:22:31.602Z,29.45
2023-02-12T03:25:15.213Z,29.63
2023-02-12T03:27:49.290Z,28.08
2023-02-12T03:30:16.589Z,28.95
2023-02-12T03:32:57.045Z,30.77
2023-02-12T03:35:45.359Z,29.15
2023-02-12T03:38:37.745Z,30.60
2023-02-12T03:41:15.727Z,28.55
2023-02-12T03:43:57.361Z,29.00
2023-02-12T03:49:30.020Z,28.13
2023-02-12T03:51:58.511Z,29.15
2023-02-12T03:54:25.516Z,29.67
2023-02-12T03:56:56.190Z,31.17
2023-02-12T03:59:24.886Z,30.30
2023-02-12T04:01:54.324Z,30.73
2023-02-12T04:04:21.739Z,29.52
2023-02-12T04:06:50.609Z,28.85
2023-02-12T04:09:23.062Z,29.00
2023-02-12T04:11:57.052Z,29.02
2023-02-12T04:14:26.832Z,28.50
2023-02-12T04:16:56.125Z,28.88
2023-02-12T04:19:44.640Z,27.67
2023-02-12T04:22:23.477Z,28.27
2023-02-12T04:24:57.117Z,28.63
2023-02-12T04:27:54.153Z,27.40
2023-02-12T04:30:38.008Z,27.40
2023-02-12T04:33:11.129Z,25.85
2023-02-12T04:35:54.790Z,27.45
2023-02-12T04:38:32.295Z,26.15
2023-02-12T04:40:59.497Z,30.17
2023-02-12T04:43:31.147Z,31.55
2023-02-12T04:45:58.382Z,30.45
2023-02-12T04:48:25.742Z,29.10
2023-02-12T04:50:52.789Z,30.05
2023-02-12T04:53:23.069Z,28.63
2023-02-12T04:55:50.858Z,30.23
2023-02-12T04:58:18.536Z,28.67
2023-02-12T05:00:45.337Z,29.17
2023-02-12T05:03:12.019Z,29.98
2023-02-12T05:05:38.716Z,28.33
2023-02-12T05:08:05.628Z,27.17
2023-02-12T05:10:32.315Z,29.60
2023-02-12T05:12:59.193Z,28.48
2023-02-12T05:15:27.115Z,28.98
2023-02-12T05:17:54.807Z,29.30
2023-02-12T05:20:21.504Z,28.83
2023-02-12T05:22:52.457Z,28.85
2023-02-12T05:25:19.200Z,30.25
2023-02-12T05:27:46.009Z,29.73
2023-02-12T05:30:13.052Z,31.13
2023-02-12T05:32:39.851Z,28.27
2023-02-12T05:35:07.337Z,29.45
2023-02-12T05:37:37.444Z,30.60
2023-02-12T05:40:05.857Z,31.70
2023-02-12T05:42:32.841Z,30.42
2023-02-12T05:45:00.056Z,30.80
2023-02-12T05:47:26.798Z,31.90
2023-02-12T05:49:54.670Z,30.15
2023-02-12T05:52:21.589Z,31.35
2023-02-12T05:54:50.403Z,29.85
2023-02-12T05:57:17.369Z,30.60
2023-02-12T05:59:44.163Z,31.10
2023-02-12T06:02:10.952Z,29.92
2023-02-12T06:04:37.818Z,30.60
2023-02-12T06:07:04.707Z,28.45
2023-02-12T06:09:32.058Z,27.58
2023-02-12T06:11:58.824Z,27.48
2023-02-12T06:14:25.819Z,27.63
2023-02-12T06:16:53.024Z,26.95
2023-02-12T06:19:20.495Z,27.67
2023-02-12T06:21:51.513Z,27.35
2023-02-12T06:24:18.411Z,28.23
2023-02-12T06:26:45.980Z,28.55
2023-02-12T06:29:13.676Z,29.20
2023-02-12T06:31:41.123Z,30.67
2023-02-12T06:34:10.657Z,29.38
2023-02-12T06:36:42.032Z,29.40
2023-02-12T06:39:10.154Z,29.83
2023-02-12T06:41:37.195Z,28.50
2023-02-12T06:44:05.188Z,26.23
2023-02-12T06:46:31.997Z,26.17
2023-02-12T06:49:00.678Z,26.60
2023-02-12T06:51:29.147Z,25.02
2023-02-12T06:53:57.395Z,24.55
2023-02-12T06:56:25.779Z,25.20
2023-02-12T07:01:25.158Z,25.60
2023-02-12T07:03:57.212Z,25.63
2023-02-12T07:06:26.109Z,24.08
2023-02-12T07:08:52.972Z,23.38
2023-02-12T07:11:24.322Z,23.30
2023-02-12T07:13:51.240Z,24.05
2023-02-12T07:16:19.498Z,24.90
2023-02-12T07:18:47.069Z,24.77
2023-02-12T07:21:15.778Z,24.27
2023-02-12T07:23:50.394Z,24.40
2023-02-12T07:26:17.894Z,23.45
2023-02-12T07:28:44.927Z,24.40
2023-02-12T07:31:23.571Z,25.25
2023-02-12T07:36:22.561Z,24.17
2023-02-12T07:38:49.669Z,23.42
2023-02-12T07:41:25.857Z,24.60
2023-02-12T07:43:57.223Z,25.05
2023-02-12T07:46:32.125Z,23.65
2023-02-12T07:49:01.693Z,23.38
2023-02-12T07:51:33.233Z,22.33
2023-02-12T07:54:01.673Z,23.30
2023-02-12T07:56:33.139Z,23.55
2023-02-12T07:59:05.897Z,22.75
2023-02-12T08:01:41.826Z,24.15
2023-02-12T08:04:13.667Z,21.60
2023-02-12T08:06:46.680Z,22.35
2023-02-12T08:09:16.359Z,22.63
2023-02-12T08:11:44.148Z,23.27
2023-02-12T08:14:16.029Z,22.95
2023-02-12T08:16:44.285Z,24.38
2023-02-12T08:19:19.501Z,24.13
2023-02-12T08:24:24.359Z,25.10
2023-02-12T08:26:51.564Z,24.83
2023-02-12T08:29:22.053Z,25.63
2023-02-12T08:31:50.914Z,24.23
2023-02-12T08:34:20.445Z,22.65
2023-02-12T08:36:49.127Z,24.45
2023-02-12T08:39:16.820Z,23.52
2023-02-12T08:41:44.843Z,23.45
2023-02-12T08:44:12.729Z,24.77
2023-02-12T08:46:48.009Z,25.75
2023-02-12T08:49:17.845Z,25.48
2023-02-12T08:51:48.832Z,24.40
2023-02-12T08:54:27.043Z,25.80
2023-02-12T08:56:57.280Z,25.52
2023-02-12T08:59:24.632Z,26.60
2023-02-12T09:01:53.187Z,24.80
2023-02-12T09:04:23.022Z,25.60
2023-02-12T09:06:52.282Z,26.17
2023-02-12T09:09:19.982Z,24.02
2023-02-12T09:11:47.355Z,25.85
2023-02-12T09:14:17.131Z,25.60
2023-02-12T09:16:44.199Z,25.27
2023-02-12T09:19:13.835Z,26.67
2023-02-12T09:21:41.273Z,25.65
2023-02-12T09:24:08.606Z,27.83
2023-02-12T09:26:35.740Z,26.35
2023-02-12T09:29:05.429Z,28.08
2023-02-12T09:31:33.489Z,27.92
2023-02-12T09:34:04.453Z,27.83
2023-02-12T09:36:31.831Z,28.17
2023-02-12T09:38:59.595Z,27.45
2023-02-12T09:41:57.252Z,27.88
2023-02-12T09:44:54.927Z,26.50
2023-02-12T09:47:26.347Z,27.83
2023-02-12T09:49:57.563Z,28.08
2023-02-12T09:52:27.948Z,27.67
2023-02-12T09:54:57.810Z,27.75
2023-02-12T09:57:29.628Z,26.38
2023-02-12T09:59:57.278Z,26.88
2023-02-12T10:02:27.920Z,27.77
2023-02-12T10:07:43.401Z,26.60
2023-02-12T10:10:15.967Z,24.92
2023-02-12T10:12:56.316Z,26.60
2023-02-12T10:15:31.735Z,26.20
2023-02-12T10:18:26.173Z,27.00
2023-02-12T10:23:41.108Z,27.33
2023-02-12T10:26:22.342Z,26.50
2023-02-12T10:28:50.191Z,25.33
2023-02-12T10:31:30.256Z,26.55
2023-02-12T10:33:57.329Z,25.05
2023-02-12T10:36:35.867Z,26.88
2023-02-12T10:39:26.616Z,25.08
2023-02-12T10:41:56.387Z,23.83
2023-02-12T10:44:26.000Z,26.17
2023-02-12T10:46:52.970Z,25.33
2023-02-12T10:49:21.965Z,25.58
2023-02-12T10:51:57.410Z,26.05
2023-02-12T10:54:45.141Z,26.17
2023-02-12T10:57:17.947Z,25.80
2023-02-12T10:59:46.889Z,25.38
2023-02-12T11:02:30.613Z,26.42
2023-02-12T11:04:59.821Z,27.17
2023-02-12T11:07:28.043Z,25.17
2023-02-12T11:09:57.467Z,25.08
2023-02-12T11:12:41.605Z,25.55
2023-02-12T11:15:16.547Z,27.00
2023-02-12T11:17:46.400Z,27.45
2023-02-12T11:20:18.840Z,25.65
2023-02-12T11:22:54.865Z,27.85
2023-02-12T11:25:23.226Z,25.20
2023-02-12T11:27:57.473Z,25.08
2023-02-12T11:30:24.818Z,25.67
2023-02-12T11:32:52.610Z,25.85
2023-02-12T11:35:25.913Z,26.23
2023-02-12T11:37:56.372Z,25.90
2023-02-12T11:40:27.874Z,25.02
2023-02-12T11:42:56.422Z,24.67
2023-02-12T11:45:32.059Z,25.80
2023-02-12T11:47:59.654Z,24.52
2023-02-12T11:50:34.677Z,23.85
2023-02-12T11:53:10.023Z,24.73
2023-02-12T11:55:40.228Z,23.20
2023-02-12T11:58:15.320Z,22.50
2023-02-12T12:03:41.771Z,24.40
2023-02-12T12:06:26.918Z,21.33
2023-02-12T12:08:57.447Z,21.58
2023-02-12T12:11:31.686Z,22.80
2023-02-12T12:13:58.614Z,23.67
2023-02-12T12:19:53.284Z,19.98
2023-02-12T12:22:29.643Z,16.40
2023-02-12T12:24:57.446Z,18.17
2023-02-12T12:27:57.913Z,17.75
2023-02-12T12:30:29.310Z,17.77
2023-02-12T12:32:56.435Z,19.27
2023-02-12T12:35:37.154Z,19.48
2023-02-12T12:38:21.310Z,17.38
2023-02-12T12:40:57.433Z,17.25
2023-02-12T12:43:33.274Z,16.42
2023-02-12T12:46:28.572Z,14.95
2023-02-12T12:48:56.375Z,13.23
2023-02-12T12:51:57.353Z,12.13
2023-02-12T12:54:36.450Z,13.32
2023-02-12T12:57:35.156Z,13.73
2023-02-12T13:00:25.433Z,13.38
2023-02-12T13:02:57.493Z,15.50
2023-02-12T13:08:43.915Z,14.60
2023-02-12T13:11:20.541Z,15.98
2023-02-12T13:13:51.939Z,15.10
2023-02-12T13:16:40.321Z,15.45
2023-02-12T13:19:20.968Z,15.27
2023-02-12T13:21:57.491Z,14.63
2023-02-12T13:24:37.769Z,14.43
2023-02-12T13:27:42.918Z,14.13
2023-02-12T13:30:24.355Z,14.52
2023-02-12T13:32:57.599Z,13.63
2023-02-12T13:35:26.450Z,13.05
2023-02-12T13:37:54.711Z,14.00
2023-02-12T13:40:29.294Z,13.82
2023-02-12T13:42:57.454Z,13.07
2023-02-12T13:45:52.020Z,12.98
2023-02-12T13:48:40.639Z,13.52
2023-02-12T13:51:50.634Z,13.68
2023-02-12T13:54:50.052Z,13.57
2023-02-12T13:57:19.871Z,12.88
2023-02-12T13:59:49.524Z,11.63
2023-02-12T14:02:49.578Z,11.32
2023-02-12T14:05:29.606Z,10.23
2023-02-12T14:07:57.601Z,8.25
2023-02-12T14:10:41.103Z,9.00
2023-02-12T14:13:34.388Z,7.20
2023-02-12T14:16:38.935Z,7.80
2023-02-12T14:19:36.694Z,7.47
2023-02-12T14:22:14.752Z,6.72
2023-02-12T14:27:34.774Z,5.22
2023-02-12T14:30:10.586Z,6.35
2023-02-12T14:32:57.650Z,6.50
2023-02-12T14:35:30.799Z,5.07
2023-02-12T14:37:58.843Z,4.07
2023-02-12T14:40:47.280Z,4.38
2023-02-12T14:43:29.278Z,4.05
2023-02-12T14:45:57.849Z,4.03
2023-02-12T14:48:53.410Z,4.70
2023-02-12T14:51:29.295Z,4.72
2023-02-12T14:56:23.916Z,4.65
2023-02-12T14:58:55.033Z,4.95
2023-02-12T15:01:36.598Z,5.88
2023-02-12T15:04:13.384Z,5.18
2023-02-12T15:06:49.415Z,5.38
2023-02-12T15:09:42.947Z,5.57
2023-02-12T15:12:22.550Z,5.70
2023-02-12T15:14:57.582Z,6.45
2023-02-12T15:17:33.653Z,6.95
2023-02-12T15:20:19.905Z,7.63
2023-02-12T15:22:47.405Z,8.20
2023-02-12T15:25:24.658Z,7.75
2023-02-12T15:27:57.543Z,8.30
2023-02-12T15:30:30.716Z,8.82
2023-02-12T15:33:00.837Z,8.77
2023-02-12T15:35:33.834Z,9.93
2023-02-12T15:38:02.101Z,10.20
2023-02-12T15:40:30.702Z,8.25
2023-02-12T15:43:00.663Z,8.65
2023-02-12T15:45:32.605Z,8.05
2023-02-12T15:48:02.195Z,8.95
2023-02-12T15:50:31.191Z,9.00
2023-02-12T15:53:01.919Z,8.10
2023-02-12T15:55:34.874Z,9.07
2023-02-12T15:58:02.207Z,9.07
2023-02-12T16:00:44.726Z,9.30
2023-02-12T16:03:32.045Z,7.85
2023-02-12T16:06:13.959Z,8.52
2023-02-12T16:08:44.090Z,8.60
2023-02-12T16:11:16.132Z,8.32
2023-02-12T16:13:50.194Z,7.88
2023-02-12T16:16:22.051Z,8.40
2023-02-12T16:18:57.489Z,8.93
2023-02-12T16:21:24.493Z,8.73
2023-02-12T16:23:53.937Z,9.00
2023-02-12T16:26:25.061Z,8.75
2023-02-12T16:28:57.959Z,8.98
2023-02-12T16:31:28.148Z,10.20
2023-02-12T16:33:59.490Z,9.93
2023-02-12T16:36:26.452Z,10.27
2023-02-12T16:41:38.594Z,9.48
2023-02-12T16:44:05.262Z,9.95
2023-02-12T16:46:34.897Z,9.07
2023-02-12T16:49:02.749Z,10.23
2023-02-12T16:51:33.423Z,9.50
2023-02-12T16:54:02.794Z,9.20
2023-02-12T16:56:34.334Z,9.95
2023-02-12T16:59:05.763Z,10.13
2023-02-12T17:01:35.548Z,9.77
2023-02-12T17:04:09.329Z,10.65
2023-02-12T17:06:35.998Z,10.35
2023-02-12T17:09:02.765Z,10.82
2023-02-12T17:11:30.403Z,10.82
2023-02-12T17:13:57.626Z,10.90
2023-02-12T17:16:31.179Z,10.68
2023-02-12T17:18:59.468Z,11.27
2023-02-12T17:21:32.702Z,11.30
2023-02-12T17:24:00.128Z,11.82
2023-02-12T17:26:27.446Z,11.60
2023-02-12T17:31:22.183Z,12.40
2023-02-12T17:33:48.961Z,12.45
2023-02-12T17:36:16.839Z,12.07
2023-02-12T17:38:43.751Z,12.35
2023-02-12T17:41:11.422Z,11.98
2023-02-12T17:43:38.629Z,11.23
2023-02-12T17:46:13.266Z,10.73
2023-02-12T17:48:40.905Z,11.80
2023-02-12T17:51:10.250Z,10.88
2023-02-12T17:53:37.638Z,11.05
2023-02-12T17:56:05.797Z,11.07
2023-02-12T17:58:32.806Z,11.45
2023-02-12T18:01:05.706Z,11.90
2023-02-12T18:03:32.654Z,11.82
2023-02-12T18:05:59.661Z,12.63
2023-02-12T18:08:26.569Z,12.15
2023-02-12T18:13:43.979Z,13.00
2023-02-12T18:16:14.189Z,12.70
2023-02-12T18:18:41.277Z,11.68
2023-02-12T18:21:16.210Z,13.10
2023-02-12T18:23:47.184Z,11.93
2023-02-12T18:26:16.953Z,11.57
2023-02-12T18:28:44.115Z,12.27
2023-02-12T18:31:11.702Z,14.20
2023-02-12T18:33:42.544Z,14.20
2023-02-12T18:36:21.478Z,14.35
2023-02-12T18:38:50.799Z,15.05
2023-02-12T18:41:20.908Z,15.25
2023-02-12T18:43:48.086Z,14.98
2023-02-12T18:46:21.364Z,15.85
2023-02-12T18:48:48.555Z,15.77
2023-02-12T18:51:19.044Z,15.85
2023-02-12T18:53:48.865Z,16.15
2023-02-12T18:56:19.087Z,17.23
2023-02-12T18:58:46.378Z,17.58
2023-02-12T19:01:15.958Z,18.02
2023-02-12T19:03:45.133Z,17.05
2023-02-12T19:06:12.401Z,17.95
2023-02-12T19:08:39.656Z,18.33
2023-02-12T19:11:07.926Z,16.90
2023-02-12T19:13:35.298Z,16.90
2023-02-12T19:16:14.896Z,16.17
2023-02-12T19:18:42.080Z,16.85
2023-02-12T19:21:12.200Z,16.70
2023-02-12T19:23:43.128Z,17.27
2023-02-12T19:26:23.933Z,17.55
2023-02-12T19:28:51.649Z,15.95
2023-02-12T19:31:24.139Z,17.75
2023-02-12T19:33:59.394Z,16.98
2023-02-12T19:36:28.686Z,17.50
2023-02-12T19:41:24.917Z,17.70
2023-02-12T19:44:00.576Z,17.02
2023-02-12T19:46:29.876Z,17.77
2023-02-12T19:48:58.567Z,17.88
2023-02-12T19:51:26.647Z,18.23
2023-02-12T19:53:54.268Z,17.75
2023-02-12T19:56:21.047Z,17.77
2023-02-12T19:58:47.967Z,17.63
2023-02-12T20:01:18.425Z,18.23
2023-02-12T20:03:49.252Z,18.55
2023-02-12T20:06:22.162Z,19.55
2023-02-12T20:08:52.024Z,19.83
2023-02-12T20:11:25.059Z,19.88
2023-02-12T20:13:52.193Z,19.65
2023-02-12T20:16:22.328Z,18.85
2023-02-12T20:18:52.127Z,19.30
2023-02-12T20:21:25.630Z,18.98
2023-02-12T20:23:53.485Z,18.52
2023-02-12T20:26:20.942Z,19.55
2023-02-12T20:28:49.624Z,18.77
2023-02-12T20:31:26.934Z,19.33
2023-02-12T20:33:57.651Z,19.00
2023-02-12T20:36:25.924Z,18.77
2023-02-12T20:41:24.310Z,18.65
2023-02-12T20:43:51.365Z,19.40
2023-02-12T20:46:23.804Z,18.60
2023-02-12T20:48:50.611Z,21.77
2023-02-12T20:51:23.537Z,19.48
2023-02-12T20:53:51.779Z,20.85
2023-02-12T20:56:20.798Z,22.58
2023-02-12T20:58:48.523Z,21.48
2023-02-12T21:01:25.564Z,20.92
2023-02-12T21:06:24.763Z,19.80
2023-02-12T21:08:52.190Z,20.05
2023-02-12T21:11:22.343Z,19.48
2023-02-12T21:14:02.313Z,20.35
2023-02-12T21:16:28.215Z,18.77
2023-02-12T21:21:29.345Z,20.23
2023-02-12T21:23:57.072Z,18.88
2023-02-12T21:26:35.752Z,20.00
2023-02-12T21:29:06.939Z,20.63
2023-02-12T21:31:42.215Z,20.58
2023-02-12T21:34:13.900Z,21.20
2023-02-12T21:36:45.315Z,20.55
2023-02-12T21:39:25.117Z,21.05
2023-02-12T21:41:55.209Z,20.88
2023-02-12T21:44:24.174Z,21.73
2023-02-12T21:49:30.110Z,20.42
2023-02-12T21:52:02.406Z,20.67
2023-02-12T21:54:30.867Z,20.70
2023-02-12T21:56:59.604Z,21.85
2023-02-12T21:59:26.913Z,20.27
2023-02-12T22:04:22.441Z,21.65
2023-02-12T22:06:51.645Z,23.00
2023-02-12T22:09:21.862Z,22.58
2023-02-12T22:11:49.031Z,23.45
2023-02-12T22:14:17.816Z,23.85
2023-02-12T22:16:45.167Z,23.48
2023-02-12T22:19:12.106Z,24.95
2023-02-12T22:21:40.722Z,24.27
2023-02-12T22:24:09.718Z,23.08
2023-02-12T22:26:36.779Z,24.65
2023-02-12T22:29:07.610Z,25.08
2023-02-12T22:31:40.946Z,24.75
2023-02-12T22:34:14.188Z,24.60
2023-02-12T22:36:42.661Z,24.05
2023-02-12T22:39:11.496Z,23.88
2023-02-12T22:41:39.224Z,24.00
2023-02-12T22:44:10.066Z,23.77
2023-02-12T22:46:36.913Z,22.60
2023-02-12T22:49:04.648Z,20.63
2023-02-12T22:51:33.641Z,22.15
2023-02-12T22:54:00.706Z,21.83
2023-02-12T22:56:27.585Z,21.42
2023-02-12T22:58:57.902Z,21.48
2023-02-12T23:01:26.052Z,22.80
2023-02-12T23:03:53.885Z,21.67
2023-02-12T23:06:23.851Z,21.55
2023-02-12T23:08:52.999Z,23.08
2023-02-12T23:11:20.752Z,21.98
2023-02-12T23:13:47.917Z,23.10
2023-02-12T23:16:14.975Z,22.80
2023-02-12T23:18:42.088Z,22.85
2023-02-12T23:21:09.292Z,21.35
2023-02-12T23:23:36.112Z,21.55
2023-02-12T23:26:06.924Z,21.67
2023-02-12T23:28:33.975Z,22.40
2023-02-12T23:31:02.617Z,23.85
2023-02-12T23:33:32.685Z,22.13
2023-02-12T23:36:02.169Z,22.25
2023-02-12T23:38:28.957Z,22.45
2023-02-12T23:43:32.931Z,23.35
2023-02-12T23:46:00.453Z,23.35
2023-02-12T23:48:29.007Z,24.13
2023-02-12T23:53:25.260Z,24.20
2023-02-12T23:55:52.571Z,25.20
2023-02-12T23:58:19.845Z,26.83
